createdAt,value
2023-01-25T00:01:07.009Z,15.57
2023-01-25T00:03:36.640Z,16.50
2023-01-25T00:06:05.213Z,17.15
2023-01-25T00:08:33.441Z,18.50
2023-01-25T00:11:01.770Z,18.48
2023-01-25T00:13:30.027Z,17.60
2023-01-25T00:16:02.744Z,16.02
2023-01-25T00:18:31.419Z,15.57
2023-01-25T00:21:01.257Z,15.35
2023-01-25T00:23:29.546Z,16.80
2023-01-25T00:25:59.070Z,16.73
2023-01-25T00:28:27.763Z,18.15
2023-01-25T00:31:00.217Z,19.23
2023-01-25T00:33:45.212Z,18.95
2023-01-25T00:36:32.488Z,16.38
2023-01-25T00:39:01.122Z,18.98
2023-01-25T00:41:29.416Z,20.35
2023-01-25T00:43:58.193Z,16.42
2023-01-25T00:46:26.353Z,17.05
2023-01-25T00:48:55.600Z,16.38
2023-01-25T00:51:24.774Z,18.08
2023-01-25T00:53:55.019Z,15.85
2023-01-25T00:56:24.425Z,16.70
2023-01-25T00:58:52.811Z,18.77
2023-01-25T01:01:21.523Z,18.33
2023-01-25T01:03:53.159Z,16.20
2023-01-25T01:06:21.439Z,16.70
2023-01-25T01:08:49.732Z,18.45
2023-01-25T01:11:19.275Z,17.25
2023-01-25T01:13:47.584Z,17.65
2023-01-25T01:16:15.894Z,20.83
2023-01-25T01:18:46.035Z,19.60
2023-01-25T01:21:15.216Z,19.55
2023-01-25T01:23:43.600Z,19.02
2023-01-25T01:26:14.502Z,23.10
2023-01-25T01:28:44.506Z,17.70
2023-01-25T01:31:14.902Z,19.02
2023-01-25T01:33:51.232Z,16.13
2023-01-25T01:36:22.284Z,19.58
2023-01-25T01:38:50.691Z,20.40
2023-01-25T01:41:19.319Z,21.83
2023-01-25T01:43:50.261Z,17.90
2023-01-25T01:46:23.502Z,17.65
2023-01-25T01:48:56.038Z,17.77
2023-01-25T01:51:35.895Z,18.30
2023-01-25T01:54:11.003Z,16.80
2023-01-25T01:56:44.725Z,17.40
2023-01-25T01:59:16.219Z,20.55
2023-01-25T02:01:45.734Z,21.50
2023-01-25T02:04:15.203Z,18.02
2023-01-25T02:06:48.423Z,19.70
2023-01-25T02:09:23.663Z,21.63
2023-01-25T02:11:53.139Z,19.85
2023-01-25T02:14:23.482Z,20.85
2023-01-25T02:16:51.857Z,18.73
2023-01-25T02:19:32.105Z,19.63
2023-01-25T02:22:07.527Z,20.45
2023-01-25T02:24:38.974Z,17.98
2023-01-25T02:27:09.659Z,19.65
2023-01-25T02:29:38.826Z,18.00
2023-01-25T02:32:07.863Z,18.55
2023-01-25T02:34:36.793Z,17.38
2023-01-25T02:37:05.362Z,17.35
2023-01-25T02:39:33.663Z,17.40
2023-01-25T02:42:01.926Z,20.45
2023-01-25T02:44:34.611Z,17.13
2023-01-25T02:47:05.138Z,17.92
2023-01-25T02:49:36.738Z,18.38
2023-01-25T02:52:06.191Z,17.00
2023-01-25T02:54:34.555Z,17.50
2023-01-25T02:57:06.794Z,18.02
2023-01-25T02:59:44.642Z,20.55
2023-01-25T03:02:15.157Z,17.98
2023-01-25T03:04:44.155Z,19.25
2023-01-25T03:07:12.615Z,18.15
2023-01-25T03:09:41.409Z,20.92
2023-01-25T03:12:09.981Z,21.17
2023-01-25T03:14:40.329Z,20.65
2023-01-25T03:17:12.216Z,17.02
2023-01-25T03:19:41.010Z,16.38
2023-01-25T03:22:10.951Z,18.25
2023-01-25T03:24:39.372Z,20.48
2023-01-25T03:27:11.808Z,22.73
2023-01-25T03:29:45.861Z,21.58
2023-01-25T03:32:21.921Z,21.00
2023-01-25T03:34:50.360Z,22.27
2023-01-25T03:37:20.257Z,20.58
2023-01-25T03:39:50.045Z,18.10
2023-01-25T03:42:21.511Z,18.30
2023-01-25T03:44:54.210Z,21.08
2023-01-25T03:47:23.919Z,18.95
2023-01-25T03:49:53.033Z,23.77
2023-01-25T03:52:21.310Z,23.17
2023-01-25T03:54:49.696Z,20.85
2023-01-25T03:57:18.102Z,20.20
2023-01-25T03:59:53.127Z,17.80
2023-01-25T04:02:23.514Z,19.85
2023-01-25T04:04:51.835Z,20.52
2023-01-25T04:07:22.323Z,20.88
2023-01-25T04:09:51.343Z,20.95
2023-01-25T04:12:20.196Z,20.17
2023-01-25T04:14:48.832Z,20.88
2023-01-25T04:17:24.254Z,20.48
2023-01-25T04:20:01.215Z,22.40
2023-01-25T04:22:36.385Z,23.40
2023-01-25T04:25:08.083Z,22.60
2023-01-25T04:27:38.414Z,22.02
2023-01-25T04:30:11.986Z,22.65
2023-01-25T04:32:42.519Z,21.60
2023-01-25T04:35:20.789Z,18.98
2023-01-25T04:37:55.574Z,20.90
2023-01-25T04:40:26.946Z,18.25
2023-01-25T04:42:55.633Z,18.98
2023-01-25T04:45:23.936Z,18.88
2023-01-25T04:47:57.258Z,21.58
2023-01-25T04:50:25.971Z,19.90
2023-01-25T04:52:55.103Z,21.40
2023-01-25T04:55:25.171Z,18.98
2023-01-25T04:57:55.811Z,20.52
2023-01-25T05:00:24.319Z,20.48
2023-01-25T05:02:54.057Z,22.95
2023-01-25T05:05:22.325Z,24.40
2023-01-25T05:07:50.745Z,21.33
2023-01-25T05:10:19.132Z,21.48
2023-01-25T05:13:07.339Z,24.60
2023-01-25T05:15:35.746Z,26.98
2023-01-25T05:18:06.132Z,20.95
2023-01-25T05:20:36.888Z,18.83
2023-01-25T05:23:05.973Z,22.08
2023-01-25T05:25:53.233Z,18.95
2023-01-25T05:28:28.506Z,17.55
2023-01-25T05:31:09.578Z,19.75
2023-01-25T05:33:39.344Z,21.65
2023-01-25T05:36:08.034Z,21.92
2023-01-25T05:38:39.018Z,24.75
2023-01-25T05:41:09.939Z,24.00
2023-01-25T05:43:38.662Z,24.02
2023-01-25T05:46:08.299Z,23.30
2023-01-25T05:48:36.774Z,24.92
2023-01-25T05:51:06.856Z,25.73
2023-01-25T05:53:35.246Z,25.30
2023-01-25T05:56:06.165Z,24.13
2023-01-25T05:58:35.302Z,24.48
2023-01-25T06:01:05.590Z,22.60
2023-01-25T06:03:43.963Z,25.65
2023-01-25T06:06:13.987Z,21.85
2023-01-25T06:08:43.487Z,23.70
2023-01-25T06:11:13.701Z,26.50
2023-01-25T06:13:46.526Z,20.35
2023-01-25T06:16:16.215Z,21.80
2023-01-25T06:18:45.489Z,19.98
2023-01-25T06:21:30.305Z,21.75
2023-01-25T06:24:02.279Z,22.35
2023-01-25T06:26:32.559Z,22.73
2023-01-25T06:29:11.436Z,22.88
2023-01-25T06:31:43.395Z,24.88
2023-01-25T06:34:17.398Z,20.75
2023-01-25T06:36:50.373Z,21.05
2023-01-25T06:39:23.073Z,19.60
2023-01-25T06:41:54.242Z,24.67
2023-01-25T06:44:26.010Z,25.85
2023-01-25T06:46:56.404Z,22.15
2023-01-25T06:49:32.233Z,23.35
2023-01-25T06:52:08.281Z,21.13
2023-01-25T06:54:39.639Z,21.42
2023-01-25T06:57:13.885Z,20.30
2023-01-25T06:59:43.001Z,20.85
2023-01-25T07:02:17.844Z,22.25
2023-01-25T07:04:50.666Z,20.13
2023-01-25T07:07:24.292Z,20.20
2023-01-25T07:09:54.713Z,20.17
2023-01-25T07:12:29.007Z,17.73
2023-01-25T07:14:58.786Z,19.98
2023-01-25T07:17:28.410Z,23.33
2023-01-25T07:19:58.130Z,20.10
2023-01-25T07:22:27.670Z,23.25
2023-01-25T07:24:57.784Z,21.95
2023-01-25T07:27:31.264Z,19.77
2023-01-25T07:29:59.793Z,20.65
2023-01-25T07:32:31.470Z,21.85
2023-01-25T07:35:00.238Z,21.52
2023-01-25T07:37:29.958Z,21.73
2023-01-25T07:39:58.567Z,18.45
2023-01-25T07:42:27.017Z,21.65
2023-01-25T07:45:12.801Z,20.80
2023-01-25T07:47:41.241Z,23.77
2023-01-25T07:50:11.205Z,22.13
2023-01-25T07:52:41.738Z,20.75
2023-01-25T07:55:11.255Z,20.80
2023-01-25T07:57:39.825Z,22.20
2023-01-25T08:00:10.535Z,23.02
2023-01-25T08:02:42.257Z,21.38
2023-01-25T08:05:12.054Z,19.67
2023-01-25T08:07:41.782Z,20.40
2023-01-25T08:10:11.529Z,23.80
2023-01-25T08:12:39.955Z,21.25
2023-01-25T08:15:09.795Z,23.95
2023-01-25T08:17:38.440Z,19.98
2023-01-25T08:20:08.806Z,22.98
2023-01-25T08:22:37.239Z,21.15
2023-01-25T08:25:08.817Z,20.63
2023-01-25T08:27:37.495Z,21.58
2023-01-25T08:30:07.025Z,22.00
2023-01-25T08:32:37.314Z,19.70
2023-01-25T08:35:08.201Z,20.98
2023-01-25T08:37:36.928Z,20.98
2023-01-25T08:40:08.478Z,20.45
2023-01-25T08:42:37.251Z,21.85
2023-01-25T08:45:07.283Z,23.65
2023-01-25T08:47:36.710Z,23.17
2023-01-25T08:50:06.541Z,24.08
2023-01-25T08:52:35.461Z,20.25
2023-01-25T08:55:11.902Z,22.00
2023-01-25T08:57:40.848Z,25.52
2023-01-25T09:00:13.220Z,27.85
2023-01-25T09:02:42.322Z,28.50
2023-01-25T09:05:11.865Z,29.52
2023-01-25T09:07:40.900Z,25.63
2023-01-25T09:10:12.642Z,26.55
2023-01-25T09:12:41.645Z,22.35
2023-01-25T09:15:11.334Z,23.70
2023-01-25T09:17:40.126Z,29.92
2023-01-25T09:20:10.585Z,21.25
2023-01-25T09:22:40.642Z,25.85
2023-01-25T09:25:11.547Z,19.88
2023-01-25T09:27:40.401Z,21.83
2023-01-25T09:30:18.253Z,20.25
2023-01-25T09:32:51.824Z,20.63
2023-01-25T09:35:20.689Z,23.02
2023-01-25T09:37:53.535Z,21.85
2023-01-25T09:40:28.575Z,21.70
2023-01-25T09:43:01.775Z,22.98
2023-01-25T09:45:35.676Z,19.38
2023-01-25T09:48:14.869Z,24.50
2023-01-25T09:51:02.329Z,22.70
2023-01-25T09:53:34.769Z,23.65
2023-01-25T09:56:12.963Z,24.00
2023-01-25T09:58:45.752Z,25.83
2023-01-25T10:01:37.631Z,23.30
2023-01-25T10:04:15.910Z,23.15
2023-01-25T10:06:59.685Z,22.08
2023-01-25T10:09:40.899Z,22.25
2023-01-25T10:12:17.684Z,19.48
2023-01-25T10:14:46.996Z,20.95
2023-01-25T10:20:37.416Z,24.33
2023-01-25T10:23:25.367Z,24.00
2023-01-25T10:25:59.545Z,21.33
2023-01-25T10:28:40.785Z,22.95
2023-01-25T10:31:18.666Z,21.48
2023-01-25T10:33:49.093Z,24.80
2023-01-25T10:36:19.902Z,22.17
2023-01-25T10:38:50.075Z,24.08
2023-01-25T10:41:24.962Z,23.25
2023-01-25T10:44:20.124Z,20.52
2023-01-25T10:46:53.157Z,23.90
2023-01-25T10:49:26.226Z,23.50
2023-01-25T10:51:55.621Z,21.95
2023-01-25T10:54:24.831Z,70.90
2023-01-25T10:56:54.275Z,32.42
2023-01-25T10:59:28.078Z,27.25
2023-01-25T11:02:02.594Z,27.50
2023-01-25T11:04:33.658Z,26.73
2023-01-25T11:07:03.010Z,27.75
2023-01-25T11:09:35.283Z,30.30
2023-01-25T11:12:07.436Z,29.00
2023-01-25T11:14:37.561Z,30.77
2023-01-25T11:17:21.866Z,26.10
2023-01-25T11:20:05.926Z,29.08
2023-01-25T11:22:34.517Z,28.75
2023-01-25T11:25:28.266Z,28.70
2023-01-25T11:28:12.812Z,26.85
2023-01-25T11:30:43.153Z,30.88
2023-01-25T11:33:13.264Z,31.63
2023-01-25T11:35:53.793Z,25.88
2023-01-25T11:38:24.572Z,30.40
2023-01-25T11:40:58.734Z,26.80
2023-01-25T11:43:46.925Z,28.58
2023-01-25T11:46:30.666Z,27.02
2023-01-25T11:49:14.686Z,27.73
2023-01-25T11:51:49.963Z,26.27
2023-01-25T11:54:37.131Z,27.65
2023-01-25T11:57:18.466Z,27.60
2023-01-25T12:00:15.950Z,26.45
2023-01-25T12:03:09.028Z,25.98
2023-01-25T12:05:51.451Z,27.27
2023-01-25T12:08:37.442Z,25.88
2023-01-25T12:11:12.034Z,26.15
2023-01-25T12:13:50.666Z,25.80
2023-01-25T12:16:55.177Z,26.63
2023-01-25T12:19:40.407Z,42.40
2023-01-25T12:22:36.143Z,28.95
2023-01-25T12:25:18.881Z,30.95
2023-01-25T12:28:00.378Z,27.58
2023-01-25T12:30:40.809Z,26.73
2023-01-25T12:33:15.096Z,27.60
2023-01-25T12:35:50.981Z,29.52
2023-01-25T12:38:25.856Z,26.77
2023-01-25T12:40:59.358Z,25.63
2023-01-25T12:43:35.221Z,24.90
2023-01-25T12:46:11.264Z,24.50
2023-01-25T12:48:45.647Z,24.27
2023-01-25T12:51:17.524Z,26.45
2023-01-25T12:53:48.334Z,27.40
2023-01-25T12:56:30.699Z,24.70
2023-01-25T12:59:09.874Z,28.58
2023-01-25T13:01:48.349Z,27.08
2023-01-25T13:04:36.985Z,28.40
2023-01-25T13:07:19.263Z,27.38
2023-01-25T13:09:57.598Z,28.17
2023-01-25T13:12:26.545Z,26.40
2023-01-25T13:14:57.371Z,29.17
2023-01-25T13:17:38.142Z,28.50
2023-01-25T13:20:49.081Z,28.80
2023-01-25T13:23:33.094Z,26.02
2023-01-25T13:26:31.332Z,28.42
2023-01-25T13:29:01.235Z,27.60
2023-01-25T13:31:53.477Z,31.17
2023-01-25T13:34:51.934Z,40.00
2023-01-25T13:37:22.874Z,28.95
2023-01-25T13:39:54.742Z,30.55
2023-01-25T13:42:25.425Z,36.45
2023-01-25T13:44:57.640Z,31.55
2023-01-25T13:47:29.523Z,30.73
2023-01-25T13:50:03.715Z,34.17
2023-01-25T13:52:32.773Z,26.85
2023-01-25T13:55:03.324Z,34.08
2023-01-25T13:57:33.210Z,36.08
2023-01-25T14:00:11.653Z,28.95
2023-01-25T14:02:41.831Z,31.00
2023-01-25T14:05:20.784Z,30.38
2023-01-25T14:07:52.825Z,31.90
2023-01-25T14:10:27.872Z,28.52
2023-01-25T14:13:01.319Z,33.25
2023-01-25T14:15:32.650Z,31.67
2023-01-25T14:18:16.436Z,30.23
2023-01-25T14:20:48.161Z,29.38
2023-01-25T14:23:25.694Z,31.30
2023-01-25T14:26:00.191Z,33.20
2023-01-25T14:28:31.967Z,34.85
2023-01-25T14:31:02.483Z,34.90
2023-01-25T14:33:33.523Z,35.15
2023-01-25T14:36:16.472Z,33.22
2023-01-25T14:38:53.520Z,36.35
2023-01-25T14:41:28.699Z,32.00
2023-01-25T14:44:00.446Z,34.70
2023-01-25T14:46:31.411Z,27.38
2023-01-25T14:49:25.221Z,32.42
2023-01-25T14:52:00.505Z,30.58
2023-01-25T14:54:31.573Z,28.02
2023-01-25T14:57:03.847Z,33.53
2023-01-25T14:59:36.251Z,29.23
2023-01-25T15:02:17.921Z,29.00
2023-01-25T15:05:04.903Z,28.25
2023-01-25T15:07:45.696Z,31.27
2023-01-25T15:10:24.185Z,27.98
2023-01-25T15:13:13.221Z,28.95
2023-01-25T15:15:53.721Z,26.50
2023-01-25T15:18:45.017Z,27.25
2023-01-25T15:21:15.743Z,29.30
2023-01-25T15:23:45.719Z,30.52
2023-01-25T15:26:18.803Z,27.50
2023-01-25T15:28:49.077Z,31.42
2023-01-25T15:31:19.687Z,29.95
2023-01-25T15:33:48.492Z,28.05
2023-01-25T15:36:18.542Z,26.52
2023-01-25T15:38:47.316Z,26.70
2023-01-25T15:41:18.393Z,31.42
2023-01-25T15:43:48.292Z,25.77
2023-01-25T15:46:19.426Z,26.98
2023-01-25T15:48:49.421Z,31.17
2023-01-25T15:51:18.311Z,26.65
2023-01-25T15:53:47.179Z,35.83
2023-01-25T15:56:19.157Z,26.60
2023-01-25T15:58:53.667Z,34.38
2023-01-25T16:01:23.069Z,25.23
2023-01-25T16:03:51.564Z,26.50
2023-01-25T16:06:37.536Z,34.92
2023-01-25T16:09:15.878Z,30.02
2023-01-25T16:11:44.840Z,31.42
2023-01-25T16:14:14.419Z,36.67
2023-01-25T16:16:46.250Z,39.78
2023-01-25T16:19:16.211Z,27.15
2023-01-25T16:21:44.635Z,20.88
2023-01-25T16:24:13.483Z,23.88
2023-01-25T16:26:46.506Z,26.35
2023-01-25T16:29:16.255Z,23.60
2023-01-25T16:31:44.754Z,25.50
2023-01-25T16:34:13.189Z,24.83
2023-01-25T16:36:41.590Z,26.48
2023-01-25T16:39:16.119Z,29.38
2023-01-25T16:41:44.494Z,33.97
2023-01-25T16:44:12.835Z,34.47
2023-01-25T16:46:42.769Z,32.83
2023-01-25T16:49:16.134Z,26.13
2023-01-25T16:51:45.382Z,26.67
2023-01-25T16:54:13.941Z,27.65
2023-01-25T16:56:42.456Z,27.63
2023-01-25T16:59:12.161Z,29.42
2023-01-25T17:01:42.042Z,29.42
2023-01-25T17:04:10.935Z,27.73
2023-01-25T17:06:42.677Z,27.40
2023-01-25T17:09:23.017Z,26.70
2023-01-25T17:11:52.487Z,27.05
2023-01-25T17:14:21.251Z,28.92
2023-01-25T17:16:53.602Z,28.92
2023-01-25T17:19:23.467Z,29.92
2023-01-25T17:21:51.832Z,23.55
2023-01-25T17:24:22.338Z,24.58
2023-01-25T17:26:50.950Z,26.85
2023-01-25T17:29:19.350Z,25.90
2023-01-25T17:31:47.899Z,27.52
2023-01-25T17:34:19.910Z,22.73
2023-01-25T17:36:48.676Z,25.55
2023-01-25T17:39:19.361Z,25.55
2023-01-25T17:41:49.332Z,24.40
2023-01-25T17:44:21.119Z,33.33
2023-01-25T17:46:50.658Z,29.60
2023-01-25T17:49:22.479Z,27.08
2023-01-25T17:51:51.137Z,27.02
2023-01-25T17:54:19.660Z,30.20
2023-01-25T17:56:48.102Z,28.77
2023-01-25T17:59:16.399Z,24.95
2023-01-25T18:01:44.861Z,24.50
2023-01-25T18:04:17.503Z,26.23
2023-01-25T18:06:47.473Z,25.98
2023-01-25T18:09:15.975Z,23.10
2023-01-25T18:11:44.312Z,19.10
2023-01-25T18:14:16.738Z,20.55
2023-01-25T18:16:45.531Z,21.65
2023-01-25T18:19:14.241Z,20.40
2023-01-25T18:21:43.330Z,24.00
2023-01-25T18:24:27.199Z,24.35
2023-01-25T18:27:01.973Z,19.70
2023-01-25T18:29:45.253Z,15.68
2023-01-25T18:32:13.959Z,14.80
2023-01-25T18:34:42.351Z,19.25
2023-01-25T18:37:20.299Z,18.00
2023-01-25T18:39:52.145Z,19.83
2023-01-25T18:42:22.133Z,19.10
2023-01-25T18:44:50.992Z,19.25
2023-01-25T18:47:21.043Z,19.38
2023-01-25T18:49:50.979Z,16.85
2023-01-25T18:52:21.283Z,17.80
2023-01-25T18:54:51.480Z,17.27
2023-01-25T18:57:20.281Z,14.75
2023-01-25T18:59:48.779Z,16.08
2023-01-25T19:02:18.755Z,14.23
2023-01-25T19:04:47.230Z,14.20
2023-01-25T19:07:16.150Z,14.80
2023-01-25T19:09:44.705Z,13.48
2023-01-25T19:12:14.431Z,16.02
2023-01-25T19:14:42.886Z,14.68
2023-01-25T19:17:11.246Z,13.45
2023-01-25T19:19:39.673Z,13.73
2023-01-25T19:22:08.108Z,11.93
2023-01-25T19:24:36.573Z,13.05
2023-01-25T19:27:05.227Z,16.13
2023-01-25T19:29:34.984Z,13.88
2023-01-25T19:32:03.356Z,15.68
2023-01-25T19:34:31.735Z,19.23
2023-01-25T19:37:00.199Z,13.80
2023-01-25T19:39:28.947Z,18.65
2023-01-25T19:41:57.363Z,13.68
2023-01-25T19:44:26.021Z,12.60
2023-01-25T19:46:56.097Z,11.93
2023-01-25T19:49:24.963Z,13.45
2023-01-25T19:51:55.922Z,14.93
2023-01-25T19:54:30.484Z,15.15
2023-01-25T19:56:59.242Z,11.38
2023-01-25T19:59:30.239Z,13.18
2023-01-25T20:01:59.996Z,14.43
2023-01-25T20:04:28.510Z,13.50
2023-01-25T20:06:56.834Z,11.77
2023-01-25T20:09:27.966Z,18.08
2023-01-25T20:11:57.392Z,15.82
2023-01-25T20:14:25.756Z,16.52
2023-01-25T20:16:54.704Z,14.57
2023-01-25T20:19:24.560Z,12.75
2023-01-25T20:21:52.967Z,12.88
2023-01-25T20:24:21.419Z,16.75
2023-01-25T20:26:51.194Z,16.77
2023-01-25T20:29:19.803Z,16.95
2023-01-25T20:31:48.406Z,16.35
2023-01-25T20:34:19.190Z,15.30
2023-01-25T20:36:49.862Z,14.35
2023-01-25T20:39:19.474Z,13.90
2023-01-25T20:41:48.685Z,14.05
2023-01-25T20:44:18.610Z,13.68
2023-01-25T20:46:47.273Z,13.90
2023-01-25T20:49:17.064Z,11.32
2023-01-25T20:51:45.757Z,10.70
2023-01-25T20:54:15.914Z,9.68
2023-01-25T20:56:47.609Z,12.48
2023-01-25T20:59:17.598Z,12.25
2023-01-25T21:01:46.730Z,10.35
2023-01-25T21:04:15.199Z,10.98
2023-01-25T21:06:43.396Z,11.15
2023-01-25T21:09:12.792Z,11.38
2023-01-25T21:11:42.586Z,9.85
2023-01-25T21:14:10.963Z,11.52
2023-01-25T21:16:39.225Z,10.15
2023-01-25T21:19:08.507Z,11.52
2023-01-25T21:21:38.218Z,11.63
2023-01-25T21:24:07.455Z,10.15
2023-01-25T21:26:38.284Z,10.30
2023-01-25T21:29:08.354Z,9.48
2023-01-25T21:31:38.864Z,12.00
2023-01-25T21:34:08.989Z,11.13
2023-01-25T21:36:37.610Z,10.00
2023-01-25T21:39:05.888Z,10.32
2023-01-25T21:41:34.709Z,14.43
2023-01-25T21:44:21.649Z,13.20
2023-01-25T21:49:57.307Z,9.55
2023-01-25T21:52:25.567Z,8.20
2023-01-25T21:54:53.823Z,9.57
2023-01-25T21:57:22.135Z,10.10
2023-01-25T21:59:52.590Z,11.40
2023-01-25T22:06:56.759Z,10.80
2023-01-25T22:09:25.178Z,9.57
2023-01-25T22:11:54.760Z,9.70
2023-01-25T22:14:23.720Z,10.95
2023-01-25T22:16:52.564Z,11.23
2023-01-25T22:19:21.368Z,11.45
2023-01-25T22:21:49.788Z,10.32
2023-01-25T22:24:19.713Z,12.80
2023-01-25T22:26:58.216Z,10.63
2023-01-25T22:29:26.615Z,10.75
2023-01-25T22:31:54.984Z,11.65
2023-01-25T22:34:23.417Z,14.35
2023-01-25T22:36:51.768Z,14.55
2023-01-25T22:39:21.456Z,12.52
2023-01-25T22:41:49.737Z,10.80
2023-01-25T22:44:18.194Z,10.45
2023-01-25T22:46:46.340Z,12.10
2023-01-25T22:49:14.736Z,11.60
2023-01-25T22:51:42.952Z,13.93
2023-01-25T22:54:11.284Z,11.63
2023-01-25T22:56:40.807Z,12.50
2023-01-25T22:59:14.748Z,10.75
2023-01-25T23:01:43.207Z,11.07
2023-01-25T23:04:11.948Z,11.13
2023-01-25T23:06:40.488Z,10.85
2023-01-25T23:09:08.747Z,12.02
2023-01-25T23:11:39.680Z,14.68
2023-01-25T23:14:30.467Z,10.77
2023-01-25T23:17:18.789Z,10.68
2023-01-25T23:19:46.150Z,10.98
2023-01-25T23:22:14.448Z,10.40
2023-01-25T23:24:43.224Z,11.10
2023-01-25T23:27:12.473Z,11.90
2023-01-25T23:29:42.149Z,11.25
2023-01-25T23:32:10.739Z,10.10
2023-01-25T23:34:40.157Z,10.27
2023-01-25T23:37:08.567Z,11.80
2023-01-25T23:39:37.154Z,10.15
2023-01-25T23:42:05.604Z,11.48
2023-01-25T23:44:33.907Z,10.30
2023-01-25T23:47:03.628Z,9.98
2023-01-25T23:49:32.153Z,10.10
2023-01-25T23:52:00.990Z,10.40
2023-01-25T23:54:29.365Z,11.10
2023-01-25T23:56:57.600Z,10.68
2023-01-25T23:59:26.086Z,11.73
